Time;durP1;ratioP1;P1;durP2;ratioP2;P2;SDS_P1;SDS_P2;PMS_P1;PMS_P2;Temp;Humidity;BMP_temperature;BMP_pressure;BME280_temperature;BME280_humidity;BME280_pressure;Samples;Min_cycle;Max_cycle;Signal;HPM_P1;HPM_P2
2022/05/02 00:00:26;;;;;;;10.13;9.02;;;;;;;9.13;65.88;100758.59;5092941;28;20066;-57
2022/05/02 00:02:54;;;;;;;10.80;7.72;;;;;;;9.19;65.61;100753.78;5091802;28;21122;-53
2022/05/02 00:05:23;;;;;;;9.70;8.02;;;;;;;9.26;65.40;100757.03;5093081;28;20052;-55
2022/05/02 00:07:50;;;;;;;10.87;7.80;;;;;;;9.31;64.58;100753.34;5093263;28;20389;-58
2022/05/02 00:10:18;;;;;;;10.65;7.88;;;;;;;9.34;64.62;100753.59;5093910;28;20055;-58
2022/05/02 00:12:48;;;;;;;10.38;8.35;;;;;;;9.42;64.47;100752.06;5091737;28;20062;-58
2022/05/02 00:15:16;;;;;;;8.88;7.68;;;;;;;9.49;64.13;100757.25;5092869;28;20048;-56
2022/05/02 00:17:59;;;;;;;10.35;8.73;;;;;;;9.50;64.42;100747.78;5091730;28;20055;-57
2022/05/02 00:20:32;;;;;;;9.55;8.55;;;;;;;9.54;64.46;100743.28;5089737;28;20060;-55
2022/05/02 00:23:01;;;;;;;11.30;8.80;;;;;;;9.57;64.49;100737.09;5093371;28;20519;-58
2022/05/02 00:25:30;;;;;;;11.60;8.68;;;;;;;9.58;64.07;100744.34;5092618;28;20048;-54
2022/05/02 00:27:57;;;;;;;10.18;9.07;;;;;;;9.62;64.00;100741.78;5091301;28;20485;-56
2022/05/02 00:30:25;;;;;;;11.48;8.50;;;;;;;9.54;64.17;100737.72;5092995;28;20512;-58
2022/05/02 00:32:53;;;;;;;10.32;8.00;;;;;;;9.55;63.89;100728.25;5091665;28;20114;-58
2022/05/02 00:35:20;;;;;;;10.05;8.23;;;;;;;9.56;64.13;100729.91;5091338;28;20052;-58
2022/05/02 00:37:49;;;;;;;10.25;8.98;;;;;;;9.53;64.64;100716.59;5092836;28;20059;-58
2022/05/02 00:40:18;;;;;;;10.25;8.75;;;;;;;9.51;64.34;100722.47;5091896;28;20040;-58
2022/05/02 00:42:47;;;;;;;10.68;9.32;;;;;;;9.49;64.35;100723.88;5092623;28;20047;-57
2022/05/02 00:45:16;;;;;;;8.80;7.90;;;;;;;9.46;64.90;100724.50;5092397;28;20044;-56
2022/05/02 00:47:50;;;;;;;10.30;9.20;;;;;;;9.44;65.23;100722.00;5089279;28;20059;-57
2022/05/02 00:50:26;;;;;;;9.50;8.48;;;;;;;9.43;65.29;100720.38;5090460;28;20048;-56
2022/05/02 00:52:54;;;;;;;10.88;9.10;;;;;;;9.40;65.54;100723.75;5092599;28;20050;-57
2022/05/02 00:55:22;;;;;;;10.53;9.33;;;;;;;9.44;65.58;100723.97;5092059;28;20507;-59
2022/05/02 00:57:49;;;;;;;11.85;8.45;;;;;;;9.48;65.31;100717.50;5090831;28;20488;-54
2022/05/02 01:00:17;;;;;;;10.68;8.13;;;;;;;9.53;65.31;100722.16;5091961;28;20492;-57
2022/05/02 01:02:44;;;;;;;9.18;8.27;;;;;;;9.55;65.46;100723.53;5092754;28;20074;-56
2022/05/02 01:05:12;;;;;;;8.68;7.55;;;;;;;9.58;64.96;100710.16;5091114;28;20480;-57
2022/05/02 01:07:39;;;;;;;9.45;8.35;;;;;;;9.62;64.80;100717.59;5092034;28;20056;-58
2022/05/02 01:10:08;;;;;;;10.38;8.32;;;;;;;9.63;64.88;100719.22;5091264;28;20051;-56
2022/05/02 01:12:35;;;;;;;12.20;8.68;;;;;;;9.65;64.79;100716.97;5092255;28;20066;-57
2022/05/02 01:15:03;;;;;;;10.48;8.60;;;;;;;9.67;64.56;100713.88;5091458;28;20040;-58
2022/05/02 01:17:32;;;;;;;10.13;8.32;;;;;;;9.67;64.70;100709.16;5091095;28;20056;-58
2022/05/02 01:19:59;;;;;;;10.10;8.25;;;;;;;9.66;64.38;100704.72;5089482;28;20059;-57
2022/05/02 01:22:28;;;;;;;9.18;8.27;;;;;;;9.66;64.41;100704.72;5090405;28;20150;-56
2022/05/02 01:24:56;;;;;;;11.30;8.40;;;;;;;9.63;64.83;100698.94;5090394;28;20503;-56
2022/05/02 01:27:23;;;;;;;10.27;9.18;;;;;;;9.63;64.55;100699.75;5091085;28;20481;-57
2022/05/02 01:29:50;;;;;;;11.45;8.77;;;;;;;9.58;64.60;100701.81;5090072;28;20067;-56
2022/05/02 01:32:18;;;;;;;10.75;9.55;;;;;;;9.57;64.69;100706.53;5091431;28;20063;-55
2022/05/02 01:34:46;;;;;;;10.10;8.77;;;;;;;9.53;64.66;100697.97;5090786;28;20040;-58
2022/05/02 01:37:15;;;;;;;10.07;8.13;;;;;;;9.48;65.21;100691.66;5092090;28;20400;-56
2022/05/02 01:39:43;;;;;;;9.87;8.87;;;;;;;9.47;65.44;100698.34;5089697;28;20044;-56
2022/05/02 01:42:12;;;;;;;10.20;8.38;;;;;;;9.43;65.63;100688.94;5090348;28;21010;-59
2022/05/02 01:44:41;;;;;;;10.82;9.05;;;;;;;9.41;65.17;100700.38;5092415;28;20051;-57
2022/05/02 01:47:11;;;;;;;11.55;9.07;;;;;;;9.35;65.25;100694.06;5090413;28;20048;-53
2022/05/02 01:49:39;;;;;;;9.18;8.07;;;;;;;9.31;65.72;100690.22;5090443;28;20052;-58
2022/05/02 01:52:07;;;;;;;10.32;8.50;;;;;;;9.31;64.99;100690.22;5089586;28;20048;-55
2022/05/02 01:54:34;;;;;;;10.90;9.18;;;;;;;9.25;65.90;100680.31;5090592;28;20063;-58
2022/05/02 01:57:03;;;;;;;10.55;9.45;;;;;;;9.26;65.60;100679.19;5090785;28;20067;-57
2022/05/02 01:59:31;;;;;;;9.65;8.68;;;;;;;9.23;65.38;100679.78;5091142;28;20074;-57
2022/05/02 02:01:58;;;;;;;13.73;10.98;;;;;;;9.19;65.37;100689.03;5090855;28;20408;-58
2022/05/02 02:07:13;;;;;;;12.50;9.55;;;;;;;9.06;65.62;100677.53;5086926;28;20059;-58
2022/05/02 02:09:41;;;;;;;9.93;8.93;;;;;;;9.02;66.50;100681.22;5091416;28;20048;-56
2022/05/02 02:12:11;;;;;;;10.35;9.30;;;;;;;8.98;65.91;100674.59;5087194;28;20052;-58
2022/05/02 02:14:38;;;;;;;10.00;8.82;;;;;;;8.95;66.39;100670.47;5090415;28;20512;-58
2022/05/02 02:17:06;;;;;;;12.80;10.05;;;;;;;8.90;66.18;100674.16;5090574;28;20059;-57
2022/05/02 02:19:34;;;;;;;10.00;8.85;;;;;;;8.86;65.97;100673.09;5090373;28;20059;-57
2022/05/02 02:22:16;;;;;;;10.85;9.68;;;;;;;8.78;66.36;100678.47;5088426;28;20040;-59
2022/05/02 02:24:44;;;;;;;11.05;9.93;;;;;;;8.73;67.07;100673.81;5089224;28;20067;-58
2022/05/02 02:27:13;;;;;;;11.00;9.85;;;;;;;8.70;67.17;100680.78;5090428;28;20056;-58
2022/05/02 02:29:41;;;;;;;10.40;9.27;;;;;;;8.70;66.70;100674.41;5088441;28;20416;-58
2022/05/02 02:32:09;;;;;;;10.30;9.32;;;;;;;8.69;67.31;100675.50;5090147;28;20392;-58
2022/05/02 02:34:36;;;;;;;10.95;8.50;;;;;;;8.67;66.66;100672.22;5092428;28;20051;-53
2022/05/02 02:37:04;;;;;;;10.18;8.93;;;;;;;8.63;66.85;100676.69;5094199;28;20052;-56
2022/05/02 02:39:31;;;;;;;13.25;8.57;;;;;;;8.62;66.22;100672.28;5095481;28;20048;-56
2022/05/02 02:41:58;;;;;;;9.80;8.80;;;;;;;8.59;66.36;100664.53;5094627;28;20048;-58
2022/05/02 02:44:27;;;;;;;9.15;8.23;;;;;;;8.53;66.73;100669.34;5095245;28;20063;-57
2022/05/02 02:46:54;;;;;;;10.30;8.60;;;;;;;8.50;66.12;100662.44;5094076;28;20055;-55
2022/05/02 02:49:22;;;;;;;10.23;8.80;;;;;;;8.46;67.26;100671.63;5094929;28;20048;-56
2022/05/02 02:51:52;;;;;;;11.15;9.50;;;;;;;8.40;67.11;100670.84;5094695;28;20381;-58
2022/05/02 02:54:19;;;;;;;12.15;10.93;;;;;;;8.37;66.92;100665.88;5092374;28;20055;-59
2022/05/02 02:56:47;;;;;;;11.68;9.85;;;;;;;8.26;67.75;100662.38;5093680;28;20063;-58
2022/05/02 02:59:15;;;;;;;12.50;8.65;;;;;;;8.27;67.97;100661.28;5093462;28;20063;-57
2022/05/02 03:01:44;;;;;;;11.13;9.38;;;;;;;8.19;67.30;100652.75;5094016;28;20392;-56
2022/05/02 03:06:57;;;;;;;13.77;10.27;;;;;;;8.05;67.99;100659.00;5100123;28;20059;-57
2022/05/02 03:09:24;;;;;;;12.35;11.05;;;;;;;8.07;68.10;100667.84;5095376;28;20052;-55
2022/05/02 03:11:51;;;;;;;11.93;10.20;;;;;;;8.09;68.66;100665.63;5093756;28;20055;-57
2022/05/02 03:14:19;;;;;;;12.93;10.90;;;;;;;8.12;67.52;100658.66;5092687;28;20546;-57
2022/05/02 03:16:47;;;;;;;14.00;10.45;;;;;;;8.13;67.97;100657.53;5094430;28;20052;-56
2022/05/02 03:19:15;;;;;;;14.98;11.32;;;;;;;8.07;68.31;100662.31;5094103;28;20052;-57
2022/05/02 03:21:42;;;;;;;12.30;10.57;;;;;;;8.05;67.89;100647.09;5091866;28;20071;-58
2022/05/02 03:24:09;;;;;;;12.95;10.43;;;;;;;8.01;68.13;100652.38;5094351;28;20420;-58
2022/05/02 03:26:37;;;;;;;12.25;10.93;;;;;;;7.98;68.40;100650.22;5093066;28;20055;-55
2022/05/02 03:29:04;;;;;;;12.18;10.88;;;;;;;7.87;68.94;100648.63;5094557;28;20412;-58
2022/05/02 03:31:32;;;;;;;13.68;11.25;;;;;;;7.83;68.96;100647.56;5093948;28;20055;-58
2022/05/02 03:34:00;;;;;;;12.77;11.20;;;;;;;7.81;68.71;100649.78;5094876;28;20067;-57
2022/05/02 03:36:28;;;;;;;12.05;10.50;;;;;;;7.79;68.30;100643.72;5093801;28;20074;-55
2022/05/02 03:38:55;;;;;;;13.88;11.27;;;;;;;7.75;68.54;100648.19;5094364;28;20052;-57
2022/05/02 03:41:23;;;;;;;13.50;11.38;;;;;;;7.73;67.98;100646.53;5093405;28;20499;-57
2022/05/02 03:43:50;;;;;;;12.52;11.23;;;;;;;7.71;69.01;100639.66;5094215;28;20055;-54
2022/05/02 03:46:17;;;;;;;13.75;11.23;;;;;;;7.70;68.33;100640.75;5091929;28;20051;-58
2022/05/02 03:48:45;;;;;;;13.55;11.80;;;;;;;7.67;68.67;100639.38;5093918;28;20424;-57
2022/05/02 03:51:14;;;;;;;16.08;12.00;;;;;;;7.59;69.56;100653.88;5092593;28;20059;-58
2022/05/02 03:53:41;;;;;;;12.63;10.57;;;;;;;7.64;68.59;100658.53;5094330;28;20465;-57
2022/05/02 03:56:09;;;;;;;15.23;11.73;;;;;;;7.66;69.40;100646.03;5091942;28;20048;-57
2022/05/02 03:58:36;;;;;;;14.45;12.80;;;;;;;7.70;69.15;100641.56;5094137;28;20048;-53
2022/05/02 04:01:04;;;;;;;14.35;12.10;;;;;;;7.75;69.54;100643.50;5092764;28;20396;-57
2022/05/02 04:03:33;;;;;;;14.73;11.20;;;;;;;7.82;69.51;100635.66;5091056;28;20048;-58
2022/05/02 04:06:01;;;;;;;13.43;10.77;;;;;;;7.90;69.17;100640.56;5086792;28;20058;-57
2022/05/02 04:08:30;;;;;;;11.40;9.38;;;;;;;7.97;68.78;100637.44;5083973;28;20055;-57
2022/05/02 04:10:57;;;;;;;11.73;9.40;;;;;;;8.06;68.79;100632.06;5084985;28;20048;-56
2022/05/02 04:13:25;;;;;;;12.93;10.10;;;;;;;8.11;68.70;100632.84;5090783;28;20129;-58
2022/05/02 04:15:52;;;;;;;11.68;9.77;;;;;;;8.20;68.77;100635.00;5084330;28;20048;-57
2022/05/02 04:18:19;;;;;;;13.18;11.20;;;;;;;8.24;68.44;100627.72;5083811;28;20059;-58
2022/05/02 04:20:47;;;;;;;13.13;10.68;;;;;;;8.32;68.74;100640.97;5082927;28;20055;-58
2022/05/02 04:23:14;;;;;;;13.13;11.15;;;;;;;8.40;68.52;100633.91;5089310;28;20048;-55
2022/05/02 04:25:43;;;;;;;12.38;10.57;;;;;;;8.38;68.83;100633.38;5088883;28;20056;-57
2022/05/02 04:28:11;;;;;;;12.02;10.43;;;;;;;8.48;68.92;100634.16;5083346;28;20485;-58
2022/05/02 04:30:39;;;;;;;13.05;10.30;;;;;;;8.59;68.36;100639.53;5091462;28;20048;-58
2022/05/02 04:33:06;;;;;;;11.52;8.95;;;;;;;8.67;68.79;100636.09;5084802;28;20044;-57
2022/05/02 04:35:36;;;;;;;12.43;10.52;;;;;;;8.84;67.61;100642.00;5089820;28;20059;-59
2022/05/02 04:38:04;;;;;;;14.07;10.82;;;;;;;8.90;67.13;100640.81;5091108;28;20059;-58
2022/05/02 04:40:31;;;;;;;14.25;10.73;;;;;;;8.98;67.22;100646.81;5093575;28;20385;-58
2022/05/02 04:43:00;;;;;;;13.13;10.65;;;;;;;9.08;67.55;100635.56;5087895;28;20044;-56
2022/05/02 04:45:27;;;;;;;12.65;10.70;;;;;;;9.26;67.04;100654.19;5091771;28;20170;-58
2022/05/02 04:47:55;;;;;;;12.88;9.90;;;;;;;9.38;66.96;100650.09;5091799;28;20052;-57
2022/05/02 04:50:22;;;;;;;13.68;10.88;;;;;;;9.50;66.33;100647.69;5088975;28;20439;-58
2022/05/02 04:52:49;;;;;;;14.02;10.57;;;;;;;9.65;65.90;100643.84;5083390;28;20044;-58
2022/05/02 04:55:17;;;;;;;13.07;10.60;;;;;;;9.73;65.47;100645.91;5084673;28;20464;-58
2022/05/02 04:57:44;;;;;;;11.98;10.45;;;;;;;9.80;64.92;100642.75;5080969;28;20055;-56
2022/05/02 05:00:16;;;;;;;11.68;9.82;;;;;;;9.87;64.61;100643.16;5082692;28;20066;-58
2022/05/02 05:02:43;;;;;;;13.15;11.65;;;;;;;9.91;64.94;100641.41;5084666;28;20052;-58
2022/05/02 05:05:11;;;;;;;14.30;10.60;;;;;;;9.97;64.13;100648.53;5088454;28;20043;-58
2022/05/02 05:07:39;;;;;;;13.60;12.20;;;;;;;10.00;64.41;100645.16;5088927;28;20059;-57
2022/05/02 05:10:09;;;;;;;12.45;10.38;;;;;;;10.01;64.50;100644.03;5088464;28;20056;-56
2022/05/02 05:12:58;;;;;;;12.40;11.02;;;;;;;10.08;64.08;100638.91;5091835;28;20062;-58
2022/05/02 05:18:42;;;;;;;12.98;11.38;;;;;;;10.24;64.49;100649.72;5085337;28;20068;-56
2022/05/02 05:21:28;;;;;;;13.32;11.85;;;;;;;10.29;64.54;100646.81;5081872;28;20060;-57
2022/05/02 05:24:19;;;;;;;13.70;12.35;;;;;;;10.36;64.63;100636.16;5081712;28;20048;-53
2022/05/02 05:26:57;;;;;;;14.90;12.43;;;;;;;10.44;64.53;100638.22;5081114;28;20048;-58
2022/05/02 05:29:35;;;;;;;13.18;11.85;;;;;;;10.54;64.17;100632.44;5088408;28;20514;-58
2022/05/02 05:32:20;;;;;;;13.35;11.85;;;;;;;10.67;63.87;100638.31;5088311;28;20059;-56
2022/05/02 05:34:57;;;;;;;13.95;12.55;;;;;;;10.73;63.42;100634.25;5085632;28;20051;-59
2022/05/02 05:38:01;;;;;;;13.63;11.50;;;;;;;10.80;63.41;100634.69;5089705;28;20052;-58
2022/05/02 05:40:34;;;;;;;13.15;11.27;;;;;;;10.81;63.28;100630.75;5090952;28;20058;-58
2022/05/02 05:43:09;;;;;;;18.60;12.18;;;;;;;10.85;63.12;100631.78;5090073;28;20048;-56
2022/05/02 05:46:01;;;;;;;15.48;12.85;;;;;;;10.96;62.52;100635.16;5089573;28;20048;-58
2022/05/02 05:48:44;;;;;;;15.18;12.13;;;;;;;11.05;62.54;100636.09;5091259;28;20055;-58
2022/05/02 05:51:28;;;;;;;15.10;11.52;;;;;;;11.10;62.16;100633.16;5088033;28;20048;-57
2022/05/02 05:54:06;;;;;;;12.07;10.88;;;;;;;11.15;62.15;100632.25;5082597;28;20055;-58
2022/05/02 05:56:47;;;;;;;13.60;12.15;;;;;;;11.27;62.33;100637.25;5089624;28;20063;-55
2022/05/02 05:59:25;;;;;;;15.13;12.25;;;;;;;11.37;62.13;100635.03;5091192;28;20056;-59
2022/05/02 06:02:04;;;;;;;14.80;12.23;;;;;;;11.46;61.78;100637.06;5091757;28;20048;-57
2022/05/02 06:04:34;;;;;;;13.18;11.88;;;;;;;11.56;61.65;100631.25;5090208;28;20485;-57
2022/05/02 06:07:02;;;;;;;15.23;12.63;;;;;;;11.70;61.23;100643.16;5094875;28;20507;-58
2022/05/02 06:09:32;;;;;;;14.82;12.68;;;;;;;11.84;60.78;100636.69;5111819;28;20484;-57
2022/05/02 06:12:00;;;;;;;12.77;11.40;;;;;;;11.96;60.47;100642.53;5111143;28;20055;-59
2022/05/02 06:14:30;;;;;;;14.40;11.15;;;;;;;12.09;59.85;100633.22;5092809;28;20052;-56
2022/05/02 06:19:48;;;;;;;15.32;11.32;;;;;;;12.33;59.48;100637.63;5091012;28;20468;-55
2022/05/02 06:22:18;;;;;;;11.65;10.20;;;;;;;12.47;58.66;100629.94;5090241;28;20051;-59
2022/05/02 06:24:49;;;;;;;11.25;9.77;;;;;;;12.58;57.59;100633.28;5091806;28;20048;-59
2022/05/02 06:27:18;;;;;;;13.85;10.80;;;;;;;12.68;57.56;100634.94;5090355;28;20052;-54
2022/05/02 06:29:46;;;;;;;12.32;10.75;;;;;;;12.67;57.44;100634.13;5090928;28;20052;-58
2022/05/02 06:32:15;;;;;;;11.52;10.38;;;;;;;12.76;56.64;100636.94;5091395;28;20404;-56
2022/05/02 06:34:43;;;;;;;11.68;9.80;;;;;;;12.76;56.81;100639.72;5091108;28;20392;-55
2022/05/02 06:37:31;;;;;;;10.52;9.43;;;;;;;12.93;56.05;100636.97;5090280;28;20381;-58
2022/05/02 06:40:17;;;;;;;16.67;11.50;;;;;;;13.19;55.55;100627.81;5091723;28;20415;-57
2022/05/02 06:42:55;;;;;;;14.68;10.80;;;;;;;13.43;54.53;100618.13;5090918;28;20052;-56
2022/05/02 06:45:34;;;;;;;12.68;11.18;;;;;;;13.54;55.46;100627.81;5073832;28;20064;-55
2022/05/02 06:48:29;;;;;;;13.20;10.70;;;;;;;13.62;55.24;100621.38;5091058;28;20051;-59
2022/05/02 06:51:04;;;;;;;14.00;10.68;;;;;;;13.85;54.99;100621.19;5071369;28;20056;-57
2022/05/02 06:53:56;;;;;;;13.93;11.98;;;;;;;14.07;54.48;100620.97;5089357;28;20044;-57
2022/05/02 06:56:33;;;;;;;11.95;10.75;;;;;;;14.23;54.42;100620.41;5084325;28;20051;-51
2022/05/02 06:59:06;;;;;;;12.80;10.95;;;;;;;14.45;53.64;100622.97;5078157;28;20067;-54
2022/05/02 07:01:46;;;;;;;11.68;10.48;;;;;;;14.59;53.46;100628.34;5084044;28;20078;-48
2022/05/02 07:04:36;;;;;;;13.05;10.32;;;;;;;14.67;53.35;100627.47;5081568;28;20063;-49
2022/05/02 07:07:25;;;;;;;12.48;11.18;;;;;;;14.73;52.66;100628.13;5081590;28;20067;-49
2022/05/02 07:10:02;;;;;;;13.73;10.57;;;;;;;14.80;52.80;100623.63;5090400;28;20428;-53
2022/05/02 07:12:31;;;;;;;12.20;10.70;;;;;;;14.83;52.29;100627.72;5090358;28;20090;-50
2022/05/02 07:15:05;;;;;;;13.65;11.77;;;;;;;14.97;52.21;100625.50;5090855;28;20504;-52
2022/05/02 07:17:57;;;;;;;12.73;10.95;;;;;;;15.31;51.49;100629.19;5085220;28;20056;-53
2022/05/02 07:20:32;;;;;;;12.20;10.90;;;;;;;15.76;50.88;100624.84;5089394;28;20047;-49
2022/05/02 07:23:15;;;;;;;11.90;10.73;;;;;;;15.95;50.35;100624.31;5092160;28;20052;-51
2022/05/02 07:25:49;;;;;;;11.77;9.63;;;;;;;16.87;48.05;100623.00;5093044;28;20055;-49
2022/05/02 07:28:33;;;;;;;10.60;9.45;;;;;;;17.60;46.46;100619.19;5092658;28;20044;-49
2022/05/02 07:31:01;;;;;;;11.02;9.40;;;;;;;18.26;44.73;100623.41;5094065;28;20052;-53
2022/05/02 07:33:35;;;;;;;9.77;8.68;;;;;;;18.94;43.07;100621.47;5091795;28;20476;-53
2022/05/02 07:36:04;;;;;;;9.88;8.88;;;;;;;19.56;41.71;100623.63;5094170;28;20055;-49
2022/05/02 07:38:33;;;;;;;10.97;9.63;;;;;;;20.12;39.19;100628.78;5094235;28;20374;-49
2022/05/02 07:43:50;;;;;;;9.40;7.65;;;;;;;21.66;36.78;100610.53;5097975;28;20071;-50
2022/05/02 07:46:20;;;;;;;8.98;8.07;;;;;;;22.16;36.11;100616.72;5093453;28;20044;-51
2022/05/02 07:48:50;;;;;;;9.07;7.90;;;;;;;22.66;34.71;100619.25;5090843;28;20060;-53
2022/05/02 07:51:20;;;;;;;8.15;6.82;;;;;;;23.48;32.74;100610.41;5092769;28;20055;-52
2022/05/02 07:53:54;;;;;;;8.90;7.90;;;;;;;23.89;32.02;100616.66;5092071;28;20051;-53
2022/05/02 07:56:29;;;;;;;8.50;7.60;;;;;;;23.39;32.57;100613.63;5093552;28;20060;-55
2022/05/02 07:58:58;;;;;;;8.15;7.25;;;;;;;24.28;32.20;100620.81;5091388;28;20048;-54
2022/05/02 08:01:27;;;;;;;9.43;7.68;;;;;;;25.07;30.32;100613.06;5088092;28;20059;-52
2022/05/02 08:03:54;;;;;;;8.23;7.07;;;;;;;25.58;29.20;100610.09;5091013;28;20056;-50
2022/05/02 08:06:43;;;;;;;8.38;7.57;;;;;;;26.56;28.19;100609.03;5093153;28;20056;-55
2022/05/02 08:09:25;;;;;;;8.88;7.10;;;;;;;27.30;26.85;100603.88;5092931;28;20063;-54
2022/05/02 08:12:01;;;;;;;9.35;6.95;;;;;;;28.06;26.04;100600.03;5093115;28;20052;-52
2022/05/02 08:14:36;;;;;;;7.45;6.72;;;;;;;28.82;24.55;100599.59;5092716;28;20048;-53
2022/05/02 08:17:13;;;;;;;9.13;6.50;;;;;;;29.67;23.52;100599.16;5091728;28;20052;-51
2022/05/02 08:19:58;;;;;;;7.72;6.72;;;;;;;29.89;22.16;100597.47;5093199;28;20400;-54
2022/05/02 08:28:24;;;;;;;7.22;6.07;;;;;;;28.20;24.65;100594.09;5099720;28;20503;-53
2022/05/02 08:31:02;;;;;;;7.32;6.38;;;;;;;27.93;24.69;100594.88;5092122;28;20048;-53
2022/05/02 08:33:31;;;;;;;7.32;6.50;;;;;;;27.53;25.73;100597.44;5092856;28;20059;-56
2022/05/02 08:36:03;;;;;;;8.43;6.80;;;;;;;27.73;25.24;100603.31;5092149;28;20044;-55
2022/05/02 08:38:52;;;;;;;7.43;6.60;;;;;;;28.25;24.50;100596.44;5092741;28;20055;-52
2022/05/02 08:42:13;;;;;;;7.43;6.72;;;;;;;27.97;25.08;100596.88;5089375;28;20438;-51
2022/05/02 08:45:23;;;;;;;7.95;6.90;;;;;;;27.65;24.98;100598.09;5078669;28;20468;-55
2022/05/02 08:48:24;;;;;;;9.43;6.53;;;;;;;28.13;25.12;100594.19;5068775;28;20056;-54
2022/05/02 08:51:33;;;;;;;8.20;7.18;;;;;;;28.28;24.65;100591.91;5085696;28;20055;-51
2022/05/02 08:54:40;;;;;;;9.32;7.70;;;;;;;28.46;24.33;100591.63;5092109;28;20429;-56
2022/05/02 08:57:39;;;;;;;7.72;6.65;;;;;;;30.21;23.01;100581.53;5091493;28;20497;-54
2022/05/02 09:00:11;;;;;;;8.48;7.28;;;;;;;31.41;21.78;100580.03;5092323;28;20055;-54
2022/05/02 09:03:14;;;;;;;7.18;6.47;;;;;;;32.83;19.83;100578.81;5091888;28;20056;-56
2022/05/02 09:06:09;;;;;;;7.15;5.95;;;;;;;33.64;19.54;100582.03;5089353;28;20056;-55
2022/05/02 09:09:12;;;;;;;7.68;6.30;;;;;;;35.13;17.69;100574.13;5091698;28;20055;-56
2022/05/02 09:11:54;;;;;;;8.88;6.25;;;;;;;35.63;17.34;100564.41;5071585;28;20051;-54
2022/05/02 09:14:52;;;;;;;6.55;5.85;;;;;;;36.67;17.17;100568.81;5087431;28;20051;-55
2022/05/02 09:17:55;;;;;;;6.68;6.00;;;;;;;37.53;15.45;100570.00;5090464;28;20149;-56
2022/05/02 09:20:48;;;;;;;7.28;5.85;;;;;;;38.05;15.30;100574.63;5091789;28;20075;-54
2022/05/02 09:23:54;;;;;;;6.80;6.10;;;;;;;38.80;14.31;100575.19;5087661;28;20044;-55
2022/05/02 09:27:13;;;;;;;6.63;6.03;;;;;;;39.45;13.62;100566.19;5089109;28;20075;-54
2022/05/02 09:30:12;;;;;;;6.53;5.93;;;;;;;39.77;13.37;100567.00;5090562;28;20388;-54
2022/05/02 09:32:46;;;;;;;6.57;5.90;;;;;;;40.04;13.62;100564.84;5090722;28;20055;-56
2022/05/02 09:35:20;;;;;;;6.00;5.50;;;;;;;40.33;13.21;100566.66;5090008;28;20044;-58
2022/05/02 09:37:58;;;;;;;6.93;5.82;;;;;;;40.57;12.84;100560.41;5086606;28;20402;-55
2022/05/02 09:40:35;;;;;;;7.00;6.28;;;;;;;40.02;13.00;100555.81;5088933;28;20060;-58
2022/05/02 09:49:33;;;;;;;6.20;5.70;;;;;;;40.47;12.35;100556.16;5090554;28;20416;-54
2022/05/02 09:49:43;;;;;;;8.25;6.65;;;;;;;40.30;13.31;100547.25;5088506;28;20059;-58
2022/05/02 09:52:15;;;;;;;8.25;6.35;;;;;;;40.90;12.30;100550.25;5076090;28;20082;-58
2022/05/02 09:58:19;;;;;;;9.27;6.65;;;;;;;40.58;12.58;100551.13;5092437;28;20063;-57
2022/05/02 10:01:08;;;;;;;7.43;6.72;;;;;;;40.55;12.49;100543.44;5088714;28;20048;-55
2022/05/02 10:03:39;;;;;;;7.93;6.70;;;;;;;41.09;12.67;100547.63;5085579;28;20052;-58
2022/05/02 10:06:10;;;;;;;7.60;6.65;;;;;;;41.42;12.07;100543.22;5089866;28;20052;-56
2022/05/02 10:08:50;;;;;;;7.07;6.38;;;;;;;41.25;12.58;100535.22;5090027;28;20060;-56
2022/05/02 10:11:39;;;;;;;6.93;6.28;;;;;;;41.46;12.28;100532.84;5076786;28;20051;-56
2022/05/02 10:14:28;;;;;;;6.97;6.30;;;;;;;41.95;11.92;100539.22;5091449;28;20055;-56
2022/05/02 10:17:01;;;;;;;8.45;6.20;;;;;;;41.77;12.03;100531.03;5089938;28;20047;-55
2022/05/02 10:19:49;;;;;;;7.72;7.00;;;;;;;41.83;11.67;100534.72;5085844;28;20052;-56
2022/05/02 10:22:28;;;;;;;6.68;5.93;;;;;;;42.18;12.12;100530.44;5089295;28;20074;-57
2022/05/02 10:25:10;;;;;;;9.02;6.68;;;;;;;42.34;11.59;100532.53;5088806;28;20351;-56
2022/05/02 10:27:54;;;;;;;6.75;6.18;;;;;;;42.54;11.28;100530.63;5085179;28;20056;-55
2022/05/02 10:30:22;;;;;;;7.40;6.70;;;;;;;42.49;11.40;100519.72;5089206;28;20059;-56
2022/05/02 10:32:56;;;;;;;6.75;6.00;;;;;;;42.65;11.14;100532.69;5091615;28;20048;-57
2022/05/02 10:35:25;;;;;;;7.10;6.40;;;;;;;42.19;11.60;100520.34;5090448;28;20063;-54
2022/05/02 10:37:58;;;;;;;6.53;5.78;;;;;;;41.88;11.88;100519.28;5090916;28;20412;-55
2022/05/02 10:40:35;;;;;;;6.75;6.15;;;;;;;42.13;11.54;100519.56;5091186;28;20055;-57
2022/05/02 10:43:04;;;;;;;;;;;;;;;41.43;11.75;100513.41;5090488;28;20409;-57
2022/05/02 10:45:34;;;;;;;7.20;6.13;;;;;;;41.66;11.82;100507.59;5091328;28;19920;-55
2022/05/02 10:48:15;;;;;;;6.63;5.93;;;;;;;41.69;12.19;100513.19;5087849;28;20059;-57
2022/05/02 10:50:49;;;;;;;7.70;6.97;;;;;;;42.10;12.04;100503.06;5085357;28;20053;-57
2022/05/02 10:53:43;;;;;;;6.90;6.20;;;;;;;42.08;12.14;100499.88;5092985;28;20051;-57
2022/05/02 10:56:21;;;;;;;7.20;6.07;;;;;;;42.07;11.70;100502.00;5084476;28;20063;-56
2022/05/02 10:58:48;;;;;;;;;;;;;;;41.55;11.83;100500.41;5092386;28;20068;-57
2022/05/02 11:01:30;;;;;;;7.18;6.57;;;;;;;41.54;11.43;100492.97;5093737;28;20263;-57
2022/05/02 11:04:14;;;;;;;7.15;6.30;;;;;;;41.84;11.90;100497.50;5093622;28;20063;-57
2022/05/02 11:06:56;;;;;;;6.60;6.05;;;;;;;41.69;11.64;100491.94;5093576;28;20052;-57
2022/05/02 11:09:34;;;;;;;7.15;6.55;;;;;;;41.82;11.62;100489.25;5093161;28;20055;-56
2022/05/02 11:12:05;;;;;;;8.05;7.25;;;;;;;41.00;11.78;100489.44;5093101;28;20500;-56
2022/05/02 11:14:49;;;;;;;7.38;6.63;;;;;;;41.52;12.50;100491.91;5093891;28;20056;-57
2022/05/02 11:17:26;;;;;;;7.13;6.53;;;;;;;42.03;12.55;100483.13;5092117;28;20052;-56
2022/05/02 11:23:05;;;;;;;8.57;6.82;;;;;;;41.42;11.90;100473.84;5100246;28;20058;-55
2022/05/02 11:25:40;;;;;;;7.45;6.75;;;;;;;41.53;12.36;100470.88;5086062;28;20059;-57
2022/05/02 11:28:27;;;;;;;8.07;7.00;;;;;;;40.70;12.66;100467.31;5091924;28;20052;-56
2022/05/02 11:31:04;;;;;;;7.38;6.47;;;;;;;40.37;13.02;100474.59;5094250;28;20059;-57
2022/05/02 11:33:38;;;;;;;7.15;6.45;;;;;;;39.79;13.13;100473.94;5094398;28;20071;-55
2022/05/02 11:36:09;;;;;;;6.88;6.18;;;;;;;40.37;12.79;100470.91;5093278;28;20056;-57
2022/05/02 11:38:42;;;;;;;7.63;6.05;;;;;;;40.04;13.05;100460.63;5088488;28;20500;-57
2022/05/02 11:41:15;;;;;;;7.63;6.82;;;;;;;40.42;13.28;100461.34;5092730;28;20503;-56
2022/05/02 11:43:45;;;;;;;6.93;6.32;;;;;;;40.84;13.09;100467.63;5089639;28;20403;-57
2022/05/02 11:46:20;;;;;;;6.90;6.25;;;;;;;40.69;13.15;100451.09;5093027;28;20400;-54
2022/05/02 11:49:14;;;;;;;7.15;6.43;;;;;;;40.39;13.28;100456.56;5082187;28;20476;-60
2022/05/02 11:51:44;;;;;;;8.25;7.05;;;;;;;40.24;12.81;100450.91;5087492;28;20384;-55
2022/05/02 11:54:34;;;;;;;7.32;6.63;;;;;;;39.73;13.15;100456.44;5091877;28;20064;-58
2022/05/02 11:57:13;;;;;;;7.75;7.05;;;;;;;39.39;13.77;100440.75;5091569;28;20048;-62
2022/05/02 11:59:54;;;;;;;7.88;6.65;;;;;;;39.63;13.45;100446.28;5092532;28;20048;-55
2022/05/02 12:02:46;;;;;;;6.82;6.22;;;;;;;39.77;13.56;100456.16;5090964;28;20071;-57
2022/05/02 12:05:23;;;;;;;7.82;6.97;;;;;;;39.59;13.41;100454.47;5091685;28;20059;-57
2022/05/02 12:07:52;;;;;;;6.27;5.50;;;;;;;39.80;13.81;100445.59;5092800;28;20059;-58
2022/05/02 12:10:22;;;;;;;7.45;6.38;;;;;;;39.52;12.71;100447.00;5093489;28;20486;-58
2022/05/02 12:12:50;;;;;;;6.65;5.80;;;;;;;38.92;13.71;100442.97;5092600;28;20075;-56
2022/05/02 12:15:20;;;;;;;8.18;7.13;;;;;;;39.16;13.80;100434.72;5094051;28;20052;-56
2022/05/02 12:17:55;;;;;;;7.18;6.43;;;;;;;39.18;13.28;100437.94;5092847;28;20111;-53
2022/05/02 12:20:24;;;;;;;6.50;5.90;;;;;;;38.87;13.79;100434.94;5092799;28;20063;-57
2022/05/02 12:22:56;;;;;;;6.57;5.78;;;;;;;38.38;14.38;100440.47;5092708;28;20059;-56
2022/05/02 12:25:28;;;;;;;6.40;5.80;;;;;;;38.05;14.17;100432.09;5093800;28;20079;-57